WetterOnline ( https://www.wetteronline.de )

Wetter aktuell Ueckermünde

Aktuelles Wetter: Ueckermünde (7m)

6-stündlich | Neueste Meldungen
Ortszeit Temperatur Wetter
So, 27.11. 19:00 5.0° C bedeckt
So, 27.11. 13:00 7.5° C bedeckt
So, 27.11. 7:00 6.4° C bedeckt
So, 27.11. 1:00 6.1° C bedeckt
Sa, 26.11. 19:00 5.9° C bedeckt
Sa, 26.11. 13:00 6.0° C bedeckt
Sa, 26.11. 7:00 4.0° C Nebel
Sa, 26.11. 1:00 3.9° C bedeckt
Ortszeit Temperatur Wetter
So, 27.11. 19:00 5.0° C bedeckt
So, 27.11. 18:50 5.0° C bedeckt
So, 27.11. 18:40 5.2° C bedeckt
So, 27.11. 18:30 5.0° C bewölkt
So, 27.11. 18:20 5.0° C bewölkt
So, 27.11. 18:10 5.3° C bewölkt
So, 27.11. 18:00 5.3° C leicht bewölkt
So, 27.11. 17:30 5.5° C wolkig
So, 27.11. 17:00 5.6° C bedeckt
So, 27.11. 16:30 5.8° C wolkig
So, 27.11. 16:00 6.1° C wolkig
Ortszeit Relative Feuchte Sichtweite
So, 27.11. 19:00 93% 13 km
So, 27.11. 13:00 89% 13 km
So, 27.11. 7:00 98% 2.8 km
So, 27.11. 1:00 98% 5.0 km
Sa, 26.11. 19:00 96% 5.0 km
Sa, 26.11. 13:00 96% 7 km
Sa, 26.11. 7:00 98% 0.5 km
Sa, 26.11. 1:00 98% 1.9 km
Ortszeit Relative Feuchte Sichtweite
So, 27.11. 19:00 93% 13 km
So, 27.11. 18:50 93% -
So, 27.11. 18:40 92% -
So, 27.11. 18:30 93% 11 km
So, 27.11. 18:20 93% -
So, 27.11. 18:10 93% -
So, 27.11. 18:00 93% 12 km
So, 27.11. 17:30 94% 11 km
So, 27.11. 17:00 94% 11 km
So, 27.11. 16:30 93% 10 km
So, 27.11. 16:00 92% 14 km
Ortszeit Niederschlagsmenge Niederschlagsart
So, 27.11. 19:00 0.0 l/m2 in 12 Std. -
So, 27.11. 13:00 0.0 l/m2 in 6 Std. -
So, 27.11. 7:00 0.5 l/m2 in 12 Std. Regen
So, 27.11. 1:00 0.5 l/m2 in 6 Std. Regen
Sa, 26.11. 19:00 0.1 l/m2 in 12 Std. -
Sa, 26.11. 13:00 0.1 l/m2 in 6 Std. Sprühregen
Sa, 26.11. 7:00 0.1 l/m2 in 12 Std. Regen
Sa, 26.11. 1:00 0.1 l/m2 in 6 Std. Regen
Ortszeit Niederschlagsmenge Niederschlagsart
So, 27.11. 19:00 0.0 l/m2 in 1 Std. -
So, 27.11. 18:50 keine Meldung -
So, 27.11. 18:40 keine Meldung -
So, 27.11. 18:30 0.0 l/m2 in 1 Std. -
So, 27.11. 18:20 keine Meldung -
So, 27.11. 18:10 keine Meldung -
So, 27.11. 18:00 0.0 l/m2 in 1 Std. -
So, 27.11. 17:30 0.0 l/m2 in 1 Std. -
So, 27.11. 17:00 0.0 l/m2 in 1 Std. -
So, 27.11. 16:30 0.0 l/m2 in 1 Std. -
So, 27.11. 16:00 0.0 l/m2 in 1 Std. -
Ortszeit Stärke Spitze Richtung
km/h Bft. km/h Grad Sektor
So, 27.11. 19:00 11 2 22 170° S
So, 27.11. 13:00 13 3 24 170° S
So, 27.11. 7:00 7 2 11 150° SO
So, 27.11. 1:00 6 1 15 220° SW
Sa, 26.11. 19:00 2 1 11 70° O
Sa, 26.11. 13:00 7 2 11 230° SW
Sa, 26.11. 7:00 4 1 11 210° SW
Sa, 26.11. 1:00 4 1 18 160° S
Ortszeit Stärke Spitze Richtung
km/h Bft. km/h Grad Sektor
So, 27.11. 19:00 11 2 22 170° S
So, 27.11. 18:50 11 2 - 170° S
So, 27.11. 18:40 11 2 - 160° S
So, 27.11. 18:30 11 2 18 160° S
So, 27.11. 18:20 11 2 - 160° S
So, 27.11. 18:10 11 2 - 170° S
So, 27.11. 18:00 11 2 22 160° S
So, 27.11. 17:30 13 3 22 150° SO
So, 27.11. 17:00 11 2 18 160° S
So, 27.11. 16:30 11 2 14 170° S
So, 27.11. 16:00 11 2 22 150° SO
Ortszeit Untergrenze Bedeckung Gattung
total tief tief mittel hoch
So, 27.11. 19:00 5700 m 8/8 8/8 - - -
So, 27.11. 13:00 210 m 8/8 8/8 - - -
So, 27.11. 7:00 60 m 8/8 8/8 - - -
So, 27.11. 1:00 90 m 8/8 8/8 - - -
Sa, 26.11. 19:00 120 m 8/8 8/8 - - -
Sa, 26.11. 13:00 90 m 8/8 8/8 - - -
Sa, 26.11. 7:00 30 m 8/8 8/8 - - -
Sa, 26.11. 1:00 30 m 8/8 8/8 - - -
Ortszeit Bedeckungsgrad in Achtel und Wolkenuntergrenze
So, 27.11. 19:00 8(5700m) 8(7200m)
So, 27.11. 18:50 8(5700m) 8(7200m)
So, 27.11. 18:40 8
So, 27.11. 18:30 7(5700m) 7(9000m)
So, 27.11. 18:20 7(5700m) 7(9000m)
So, 27.11. 18:10 7
So, 27.11. 18:00 1(7500m) 5(9000m)
So, 27.11. 17:30 3(6300m) 7(8700m)
So, 27.11. 17:00 8(6300m) 8(7800m) 8(9000m)
So, 27.11. 16:30 5(6600m)
So, 27.11. 16:00 6(7200m) 8(10500m)
Ortszeit Luftdruck NN (hPa) Tendenz (hPa in 3 Std.)
So, 27.11. 19:00 1024 - 1,0
So, 27.11. 13:00 1026 - 1,1
So, 27.11. 7:00 1028 0,0
So, 27.11. 1:00 1029 - 0,2
Sa, 26.11. 19:00 1029 + 0,9
Sa, 26.11. 13:00 1028 + 1,0
Sa, 26.11. 7:00 1025 + 1,8
Sa, 26.11. 1:00 1022 + 1,0
Ortszeit Luftdruck NN (hPa) Tendenz (hPa in 3 Std.)
So, 27.11. 19:00 1024 - 1,0
So, 27.11. 18:50 1024 keine Meldung
So, 27.11. 18:40 1024 keine Meldung
So, 27.11. 18:30 1024 - 0,9
So, 27.11. 18:20 1024 keine Meldung
So, 27.11. 18:10 1024 keine Meldung
So, 27.11. 18:00 1024 - 1,0
So, 27.11. 17:30 1025 - 0,9
So, 27.11. 17:00 1025 - 1,0
So, 27.11. 16:30 1025 - 1,2
So, 27.11. 16:00 1025 - 1,3
Ortszeit Schneehöhe (cm)
So, 27.11. 19:00 0
So, 27.11. 13:00 0
So, 27.11. 7:00 0
So, 27.11. 1:00 0
Sa, 26.11. 19:00 0
Sa, 26.11. 13:00 0
Sa, 26.11. 7:00 0
Sa, 26.11. 1:00 0
Ortszeit Schneehöhe (cm)
So, 27.11. 19:00 0
So, 27.11. 18:50 0
So, 27.11. 18:40 0
So, 27.11. 18:30 0
So, 27.11. 18:20 0
So, 27.11. 18:10 0
So, 27.11. 18:00 0
So, 27.11. 17:30 0
So, 27.11. 17:00 0
So, 27.11. 16:30 0
So, 27.11. 16:00 0
Link zu dieser Seite / Seite empfehlen

Das Wetter in ...